Time;durP1;ratioP1;P1;durP2;ratioP2;P2;SDS_P1;SDS_P2;PMS_P1;PMS_P2;Temp;Humidity;BMP_temperature;BMP_pressure;BME280_temperature;BME280_humidity;BME280_pressure;Samples;Min_cycle;Max_cycle;Signal;HPM_P1;HPM_P2
2021/05/26 00:04:43;;;;;;;10.85;2.77;;;;;;;8.04;84.35;99284.19;4345126;80;21135;-83
2021/05/26 00:10:44;;;;;;;7.95;2.50;;;;;;;8.05;84.74;99281.66;4346995;81;21032;-83
2021/05/26 00:16:46;;;;;;;9.95;2.58;;;;;;;8.04;84.82;99289.63;4336526;81;21337;-82
2021/05/26 00:22:51;;;;;;;2.77;1.92;;;;;;;7.92;84.35;99286.40;4339298;81;21047;-82
2021/05/26 00:28:55;;;;;;;6.20;2.12;;;;;;;7.80;84.67;99281.03;4341281;81;21112;-82
2021/05/26 00:34:57;;;;;;;4.92;1.90;;;;;;;7.79;84.35;99281.38;4345305;81;21039;-82
2021/05/26 00:40:58;;;;;;;6.10;2.10;;;;;;;7.76;84.68;99286.17;4342964;80;21630;-82
2021/05/26 00:54:07;;;;;;;6.75;2.08;;;;;;;7.47;83.94;99289.28;4344727;80;21079;-83
2021/05/26 01:00:12;;;;;;;3.55;1.67;;;;;;;7.30;84.35;99294.43;4332474;81;21068;-82
2021/05/26 01:06:20;;;;;;;5.35;2.17;;;;;;;7.30;84.64;99294.43;4347614;81;21583;-83
2021/05/26 01:12:27;;;;;;;3.75;1.65;;;;;;;7.25;84.53;99293.30;4350179;80;21646;-83
2021/05/26 01:18:34;;;;;;;2.83;1.67;;;;;;;7.16;84.55;99297.30;4300354;81;21075;-82
2021/05/26 01:24:37;;;;;;;3.83;1.70;;;;;;;7.06;84.64;99295.88;4307563;81;21066;-83
2021/05/26 01:30:39;;;;;;;3.17;1.35;;;;;;;6.99;84.29;99304.38;4341130;81;21119;-83
2021/05/26 01:36:43;;;;;;;3.80;1.37;;;;;;;7.07;84.23;99311.07;4326225;81;21048;-82
2021/05/26 01:42:47;;;;;;;3.37;1.35;;;;;;;7.31;83.56;99321.11;4314668;81;21020;-82
2021/05/26 01:48:53;;;;;;;5.75;1.22;;;;;;;7.45;83.08;99315.50;4305481;82;21123;-83
2021/05/26 01:55:05;;;;;;;6.03;1.30;;;;;;;7.41;83.14;99307.78;4308527;81;22152;-83
2021/05/26 02:01:10;;;;;;;4.37;0.90;;;;;;;7.39;83.25;99301.11;4305311;81;21580;-83
2021/05/26 02:07:14;;;;;;;3.77;1.47;;;;;;;7.28;83.42;99299.42;4322647;81;21098;-83
2021/05/26 02:13:23;;;;;;;5.03;1.23;;;;;;;7.17;83.39;99307.08;4311757;81;21660;-83
2021/05/26 02:19:37;;;;;;;2.22;1.62;;;;;;;7.13;83.56;99316.50;4235258;83;21104;-83
2021/05/26 02:25:41;;;;;;;6.42;1.32;;;;;;;7.07;83.42;99330.69;4301879;81;21028;-83
2021/05/26 02:31:51;;;;;;;3.40;0.90;;;;;;;7.19;83.45;99334.73;4360091;80;21068;-83
2021/05/26 02:37:53;;;;;;;3.17;1.07;;;;;;;7.17;83.36;99329.63;4344536;81;21127;-84
2021/05/26 02:44:09;;;;;;;3.15;1.17;;;;;;;7.18;83.73;99324.98;4326674;81;21551;-84
2021/05/26 02:50:21;;;;;;;1.10;0.68;;;;;;;7.22;83.44;99336.20;4304380;81;20997;-83
2021/05/26 02:56:24;;;;;;;2.72;0.93;;;;;;;7.25;83.56;99332.80;4338186;81;21040;-84
2021/05/26 03:02:47;;;;;;;2.62;0.72;;;;;;;7.10;83.22;99326.71;4335265;81;21639;-83
2021/05/26 03:08:49;;;;;;;3.20;1.12;;;;;;;7.02;84.03;99324.91;4339268;81;21079;-83
2021/05/26 03:14:57;;;;;;;4.25;1.50;;;;;;;7.16;84.06;99328.61;4349753;81;21060;-83
2021/05/26 03:20:58;;;;;;;6.15;2.60;;;;;;;7.22;84.15;99336.80;4341841;81;21053;-83
2021/05/26 03:27:10;;;;;;;4.12;1.85;;;;;;;7.01;83.44;99335.59;4338527;81;21064;-83
2021/05/26 03:33:15;;;;;;;4.40;1.47;;;;;;;6.80;83.85;99350.44;4338308;81;21088;-82
2021/05/26 03:39:19;;;;;;;2.62;1.25;;;;;;;6.89;84.00;99339.66;4321658;81;21123;-83
2021/05/26 03:45:29;;;;;;;5.00;2.33;;;;;;;6.94;84.14;99341.39;4335160;81;22371;-83
2021/05/26 03:51:30;;;;;;;3.35;1.72;;;;;;;7.11;84.63;99350.06;4323455;80;21600;-83
2021/05/26 04:03:52;;;;;;;4.60;1.52;;;;;;;7.27;83.92;99350.95;4336745;81;21584;-83
2021/05/26 04:09:56;;;;;;;3.83;0.70;;;;;;;7.42;84.36;99351.58;4240225;81;155780;-83
2021/05/26 04:16:02;;;;;;;4.58;0.98;;;;;;;7.53;84.06;99360.08;4116752;85;21588;-83
2021/05/26 04:22:22;;;;;;;1.65;1.20;;;;;;;7.75;84.12;99354.09;4097949;85;21076;-82
2021/05/26 04:28:44;;;;;;;2.20;0.72;;;;;;;7.94;83.97;99359.09;4119254;84;21081;-83
2021/05/26 04:34:46;;;;;;;3.27;0.80;;;;;;;8.14;83.22;99361.39;4087306;84;21096;-83
2021/05/26 04:40:56;;;;;;;2.98;1.00;;;;;;;8.44;82.83;99376.80;4134511;84;21619;-83
2021/05/26 04:47:08;;;;;;;4.42;1.00;;;;;;;8.70;82.49;99381.95;4123296;85;21648;-83
2021/05/26 04:53:10;;;;;;;2.17;1.00;;;;;;;8.89;82.23;99375.20;4129189;84;21131;-83
2021/05/26 04:59:12;;;;;;;3.12;1.17;;;;;;;9.11;81.91;99379.21;4131594;86;21083;-83
2021/05/26 05:05:41;;;;;;;6.40;1.52;;;;;;;9.28;81.70;99376.87;4126526;84;21662;-83
2021/05/26 05:11:53;;;;;;;5.28;1.60;;;;;;;9.56;81.03;99378.05;4117174;84;21352;-84
2021/05/26 05:18:07;;;;;;;5.53;1.40;;;;;;;9.95;80.53;99384.30;4126739;84;21619;-83
2021/05/26 05:24:15;;;;;;;2.62;1.00;;;;;;;10.27;79.68;99376.17;4122571;85;21191;-83
2021/05/26 05:30:21;;;;;;;5.12;1.10;;;;;;;10.65;79.17;99376.04;4130038;84;21075;-83
2021/05/26 05:36:27;;;;;;;4.70;1.02;;;;;;;11.00;78.79;99376.62;4122110;84;21120;-83
2021/05/26 05:42:43;;;;;;;3.45;0.88;;;;;;;11.16;77.82;99381.38;4127661;85;21109;-83
2021/05/26 05:49:01;;;;;;;2.22;1.00;;;;;;;11.37;77.05;99380.29;4119593;85;21489;-84
